TAP36RC LPPT-LPPR
Flight info
| Callsign | TAP36RC |
|---|---|
| Flight time | 0h 29m |
| Altitude | 22000 |
| Route | IXIDA DCT ABLEG |
| Aircraft | A320/M-SDE3FGHIRWY/LB1 |
Departure
| Time | 2026-05-06 19:42 |
|---|---|
| Airport | Lisbon Humberto Delgado Airport (LPPT) |
Arrival
| Time | 2026-05-06 20:12 |
|---|---|
| Airport | Francisco de Sá Carneiro Airport (LPPR) |
| Time | Latitude | Longitude | Altitude | Speed | Heading |
|---|---|---|---|---|---|
| 2026-05-06 19:15 | 38.77207 | -9.13138 | 333 ft | 0 kts | 78° |
| 2026-05-06 19:33 | 38.77205 | -9.13149 | 332 ft | 4 kts | 78° |
| 2026-05-06 19:33 | 38.77199 | -9.13183 | 334 ft | 4 kts | 72° |
| 2026-05-06 19:34 | 38.77187 | -9.13210 | 334 ft | 4 kts | 30° |
| 2026-05-06 19:34 | 38.77166 | -9.13216 | 336 ft | 1 kts | 348° |
| 2026-05-06 19:34 | 38.77161 | -9.13215 | 335 ft | 0 kts | 348° |
| 2026-05-06 19:37 | 38.77163 | -9.13215 | 337 ft | 2 kts | 348° |
| 2026-05-06 19:37 | 38.77213 | -9.13229 | 333 ft | 10 kts | 348° |
| 2026-05-06 19:37 | 38.77285 | -9.13248 | 338 ft | 11 kts | 348° |
| 2026-05-06 19:37 | 38.77330 | -9.13308 | 338 ft | 10 kts | 259° |
| 2026-05-06 19:38 | 38.77312 | -9.13399 | 345 ft | 12 kts | 257° |
| 2026-05-06 19:38 | 38.77295 | -9.13500 | 346 ft | 13 kts | 258° |
| 2026-05-06 19:38 | 38.77278 | -9.13607 | 350 ft | 12 kts | 261° |
| 2026-05-06 19:38 | 38.77263 | -9.13706 | 360 ft | 11 kts | 258° |
| 2026-05-06 19:39 | 38.77247 | -9.13807 | 359 ft | 12 kts | 258° |
| 2026-05-06 19:39 | 38.77194 | -9.13867 | 363 ft | 10 kts | 204° |
| 2026-05-06 19:39 | 38.77120 | -9.13906 | 357 ft | 16 kts | 202° |
| 2026-05-06 19:39 | 38.77019 | -9.13958 | 357 ft | 16 kts | 201° |
| 2026-05-06 19:40 | 38.76915 | -9.14014 | 352 ft | 17 kts | 203° |
| 2026-05-06 19:40 | 38.76806 | -9.14074 | 347 ft | 17 kts | 203° |
| 2026-05-06 19:40 | 38.76698 | -9.14132 | 349 ft | 16 kts | 203° |
| 2026-05-06 19:40 | 38.76599 | -9.14196 | 337 ft | 15 kts | 231° |
| 2026-05-06 19:41 | 38.76623 | -9.14332 | 334 ft | 15 kts | 294° |
| 2026-05-06 19:41 | 38.76679 | -9.14369 | 333 ft | 10 kts | 22° |
| 2026-05-06 19:41 | 38.76745 | -9.14334 | 338 ft | 11 kts | 22° |
| 2026-05-06 19:41 | 38.76967 | -9.14219 | 354 ft | 75 kts | 23° |
| 2026-05-06 19:42 | 38.77696 | -9.13830 | 364 ft | 148 kts | 24° |
| 2026-05-06 19:42 | 38.78733 | -9.13240 | 931 ft | 165 kts | 21° |
| 2026-05-06 19:42 | 38.79805 | -9.12621 | 1810 ft | 173 kts | 19° |
| 2026-05-06 19:42 | 38.80947 | -9.11995 | 2639 ft | 185 kts | 18° |
| 2026-05-06 19:43 | 38.82151 | -9.11221 | 3424 ft | 202 kts | 26° |
| 2026-05-06 19:43 | 38.83415 | -9.10276 | 4195 ft | 221 kts | 28° |
| 2026-05-06 19:43 | 38.84758 | -9.09252 | 4962 ft | 214 kts | 29° |
| 2026-05-06 19:43 | 38.85994 | -9.08294 | 5715 ft | 206 kts | 31° |
| 2026-05-06 19:44 | 38.87223 | -9.07339 | 6419 ft | 210 kts | 32° |
| 2026-05-06 19:44 | 38.88512 | -9.06339 | 6913 ft | 223 kts | 31° |
| 2026-05-06 19:44 | 38.89839 | -9.05198 | 7417 ft | 236 kts | 40° |
| 2026-05-06 19:44 | 38.91080 | -9.03771 | 7925 ft | 241 kts | 42° |
| 2026-05-06 19:45 | 38.92356 | -9.02349 | 8442 ft | 244 kts | 33° |
| 2026-05-06 19:45 | 38.93922 | -9.01505 | 8966 ft | 247 kts | 13° |
| 2026-05-06 19:45 | 38.95607 | -9.01048 | 9517 ft | 249 kts | 9° |
| 2026-05-06 19:45 | 38.97321 | -9.00646 | 10274 ft | 252 kts | 9° |
| 2026-05-06 19:46 | 38.99056 | -9.00221 | 10997 ft | 256 kts | 10° |
| 2026-05-06 19:46 | 39.00811 | -8.99749 | 11722 ft | 260 kts | 11° |
| 2026-05-06 19:46 | 39.02633 | -8.99224 | 12032 ft | 283 kts | 12° |
| 2026-05-06 19:46 | 39.04630 | -8.98620 | 12274 ft | 307 kts | 12° |
| 2026-05-06 19:47 | 39.06813 | -8.97938 | 12505 ft | 331 kts | 13° |
| 2026-05-06 19:47 | 39.09097 | -8.97339 | 12852 ft | 346 kts | 7° |
| 2026-05-06 19:47 | 39.11500 | -8.96845 | 13482 ft | 352 kts | 7° |
| 2026-05-06 19:47 | 39.13942 | -8.96399 | 14152 ft | 356 kts | 6° |
| 2026-05-06 19:48 | 39.16418 | -8.95967 | 14729 ft | 362 kts | 5° |
| 2026-05-06 19:48 | 39.18927 | -8.95532 | 15336 ft | 366 kts | 6° |
| 2026-05-06 19:48 | 39.21459 | -8.95083 | 15962 ft | 370 kts | 5° |
| 2026-05-06 19:48 | 39.24032 | -8.94615 | 16563 ft | 375 kts | 6° |
| 2026-05-06 19:49 | 39.26623 | -8.94131 | 17210 ft | 378 kts | 6° |
| 2026-05-06 19:49 | 39.29248 | -8.93636 | 17769 ft | 384 kts | 7° |
| 2026-05-06 19:49 | 39.31899 | -8.93135 | 18389 ft | 386 kts | 7° |
| 2026-05-06 19:49 | 39.34571 | -8.92633 | 18922 ft | 390 kts | 7° |
| 2026-05-06 19:50 | 39.37271 | -8.92127 | 19455 ft | 393 kts | 6° |
| 2026-05-06 19:50 | 39.39985 | -8.91618 | 20014 ft | 396 kts | 6° |
| 2026-05-06 19:50 | 39.42721 | -8.91105 | 20534 ft | 399 kts | 7° |
| 2026-05-06 19:50 | 39.45479 | -8.90589 | 21079 ft | 401 kts | 7° |
| 2026-05-06 19:51 | 39.48254 | -8.90069 | 21565 ft | 405 kts | 7° |
| 2026-05-06 19:51 | 39.51059 | -8.89540 | 21919 ft | 408 kts | 6° |
| 2026-05-06 19:51 | 39.53835 | -8.89016 | 21963 ft | 397 kts | 7° |
| 2026-05-06 19:51 | 39.56553 | -8.88501 | 21969 ft | 393 kts | 7° |
| 2026-05-06 19:52 | 39.59252 | -8.87988 | 21969 ft | 391 kts | 6° |
| 2026-05-06 19:52 | 39.61945 | -8.87478 | 21971 ft | 391 kts | 7° |
| 2026-05-06 19:52 | 39.64636 | -8.86971 | 21971 ft | 390 kts | 6° |
| 2026-05-06 19:52 | 39.67326 | -8.86463 | 21972 ft | 392 kts | 7° |
| 2026-05-06 19:53 | 39.70020 | -8.85954 | 21984 ft | 391 kts | 7° |
| 2026-05-06 19:53 | 39.72706 | -8.85446 | 21974 ft | 389 kts | 7° |
| 2026-05-06 19:53 | 39.75386 | -8.84939 | 21975 ft | 389 kts | 7° |
| 2026-05-06 19:53 | 39.78062 | -8.84435 | 21974 ft | 388 kts | 7° |
| 2026-05-06 19:54 | 39.80737 | -8.83932 | 21969 ft | 388 kts | 7° |
| 2026-05-06 19:54 | 39.83410 | -8.83427 | 21972 ft | 388 kts | 7° |
| 2026-05-06 19:54 | 39.86088 | -8.82918 | 21969 ft | 388 kts | 7° |
| 2026-05-06 19:54 | 39.88763 | -8.82408 | 21969 ft | 388 kts | 7° |
| 2026-05-06 19:55 | 39.91400 | -8.81903 | 21969 ft | 388 kts | 7° |
| 2026-05-06 19:55 | 39.94110 | -8.81384 | 21967 ft | 389 kts | 7° |
| 2026-05-06 19:55 | 39.96783 | -8.80873 | 21970 ft | 388 kts | 7° |
| 2026-05-06 19:55 | 39.99455 | -8.80359 | 21967 ft | 388 kts | 7° |
| 2026-05-06 19:56 | 40.02128 | -8.79847 | 21968 ft | 388 kts | 7° |
| 2026-05-06 19:56 | 40.04768 | -8.79343 | 21968 ft | 388 kts | 7° |
| 2026-05-06 19:56 | 40.07441 | -8.78835 | 21964 ft | 388 kts | 7° |
| 2026-05-06 19:56 | 40.10112 | -8.78325 | 21961 ft | 388 kts | 7° |
| 2026-05-06 19:57 | 40.12791 | -8.77812 | 21966 ft | 394 kts | 7° |
| 2026-05-06 19:57 | 40.15536 | -8.77286 | 21971 ft | 399 kts | 7° |
| 2026-05-06 19:57 | 40.18237 | -8.76767 | 21900 ft | 386 kts | 7° |
| 2026-05-06 19:57 | 40.20849 | -8.76263 | 21736 ft | 374 kts | 7° |
| 2026-05-06 19:58 | 40.23402 | -8.75768 | 21405 ft | 368 kts | 7° |
| 2026-05-06 19:58 | 40.25927 | -8.75279 | 20983 ft | 365 kts | 7° |
| 2026-05-06 19:58 | 40.28431 | -8.74796 | 20586 ft | 362 kts | 7° |
| 2026-05-06 19:58 | 40.30917 | -8.74318 | 20149 ft | 361 kts | 7° |
| 2026-05-06 19:59 | 40.33389 | -8.73842 | 19760 ft | 358 kts | 7° |
| 2026-05-06 19:59 | 40.35841 | -8.73370 | 19365 ft | 355 kts | 7° |
| 2026-05-06 19:59 | 40.38276 | -8.72900 | 18954 ft | 353 kts | 7° |
| 2026-05-06 19:59 | 40.40702 | -8.72434 | 18602 ft | 350 kts | 6° |
| 2026-05-06 20:00 | 40.43105 | -8.71972 | 18192 ft | 349 kts | 6° |
| 2026-05-06 20:00 | 40.45497 | -8.71510 | 17784 ft | 346 kts | 7° |
| 2026-05-06 20:00 | 40.47869 | -8.71049 | 17402 ft | 344 kts | 7° |
| 2026-05-06 20:00 | 40.50229 | -8.70591 | 16992 ft | 342 kts | 7° |
| 2026-05-06 20:01 | 40.52569 | -8.70138 | 16638 ft | 338 kts | 7° |
| 2026-05-06 20:01 | 40.54895 | -8.69685 | 16260 ft | 337 kts | 7° |
| 2026-05-06 20:01 | 40.57206 | -8.69237 | 15896 ft | 335 kts | 7° |
| 2026-05-06 20:01 | 40.59499 | -8.68789 | 15565 ft | 332 kts | 7° |
| 2026-05-06 20:02 | 40.61778 | -8.68345 | 15189 ft | 331 kts | 7° |
| 2026-05-06 20:02 | 40.64046 | -8.67905 | 14868 ft | 328 kts | 6° |
| 2026-05-06 20:02 | 40.66295 | -8.67466 | 14543 ft | 326 kts | 7° |
| 2026-05-06 20:02 | 40.68532 | -8.67029 | 14212 ft | 324 kts | 8° |
| 2026-05-06 20:03 | 40.70734 | -8.66596 | 14053 ft | 315 kts | 7° |
| 2026-05-06 20:03 | 40.72846 | -8.66181 | 13532 ft | 309 kts | 7° |
| 2026-05-06 20:03 | 40.74946 | -8.65773 | 13194 ft | 297 kts | 7° |
| 2026-05-06 20:03 | 40.76924 | -8.65389 | 13062 ft | 278 kts | 7° |
| 2026-05-06 20:04 | 40.78809 | -8.65021 | 12728 ft | 273 kts | 7° |
| 2026-05-06 20:04 | 40.80691 | -8.64657 | 12384 ft | 273 kts | 8° |
| 2026-05-06 20:04 | 40.82570 | -8.64293 | 11988 ft | 275 kts | 8° |
| 2026-05-06 20:04 | 40.84486 | -8.63917 | 11476 ft | 280 kts | 8° |
| 2026-05-06 20:05 | 40.86406 | -8.63539 | 10985 ft | 277 kts | 8° |
| 2026-05-06 20:05 | 40.88305 | -8.63167 | 10490 ft | 275 kts | 9° |
| 2026-05-06 20:05 | 40.89581 | -8.62918 | 10163 ft | 273 kts | 9° |
| 2026-05-06 20:05 | 40.92057 | -8.62435 | 9487 ft | 271 kts | 9° |
| 2026-05-06 20:06 | 40.93288 | -8.62194 | 9140 ft | 269 kts | 9° |
| 2026-05-06 20:06 | 40.95134 | -8.61832 | 8611 ft | 267 kts | 10° |
| 2026-05-06 20:06 | 40.96966 | -8.61470 | 8097 ft | 265 kts | 9° |
| 2026-05-06 20:06 | 40.98794 | -8.61315 | 7590 ft | 263 kts | 354° |
| 2026-05-06 20:07 | 41.00582 | -8.61748 | 7104 ft | 260 kts | 349° |
| 2026-05-06 20:07 | 41.02339 | -8.62218 | 6613 ft | 253 kts | 349° |
| 2026-05-06 20:07 | 41.04012 | -8.62668 | 6113 ft | 239 kts | 348° |
| 2026-05-06 20:07 | 41.05602 | -8.63094 | 5600 ft | 228 kts | 348° |
| 2026-05-06 20:08 | 41.07123 | -8.63496 | 5091 ft | 219 kts | 349° |
| 2026-05-06 20:08 | 41.08592 | -8.63881 | 4590 ft | 212 kts | 349° |
| 2026-05-06 20:08 | 41.10017 | -8.64254 | 4074 ft | 205 kts | 349° |
| 2026-05-06 20:08 | 41.11399 | -8.64615 | 3571 ft | 200 kts | 349° |
| 2026-05-06 20:09 | 41.12732 | -8.64963 | 3096 ft | 189 kts | 349° |
| 2026-05-06 20:09 | 41.13999 | -8.65293 | 2584 ft | 183 kts | 349° |
| 2026-05-06 20:09 | 41.15227 | -8.65612 | 2069 ft | 177 kts | 349° |
| 2026-05-06 20:09 | 41.16404 | -8.65920 | 1572 ft | 170 kts | 348° |
| 2026-05-06 20:10 | 41.17543 | -8.66203 | 1302 ft | 155 kts | 350° |
| 2026-05-06 20:10 | 41.18537 | -8.66470 | 1277 ft | 141 kts | 347° |
| 2026-05-06 20:10 | 41.19519 | -8.66755 | 1083 ft | 149 kts | 349° |
| 2026-05-06 20:10 | 41.20548 | -8.67017 | 893 ft | 152 kts | 351° |
| 2026-05-06 20:11 | 41.21598 | -8.67276 | 652 ft | 156 kts | 349° |
| 2026-05-06 20:11 | 41.22677 | -8.67565 | 455 ft | 157 kts | 347° |
| 2026-05-06 20:11 | 41.23718 | -8.67841 | 248 ft | 146 kts | 348° |
| 2026-05-06 20:11 | 41.24620 | -8.68075 | 208 ft | 111 kts | 349° |
| 2026-05-06 20:12 | 41.25104 | -8.68189 | 197 ft | 26 kts | 18° |
| 2026-05-06 20:12 | 41.25259 | -8.68108 | 180 ft | 21 kts | 20° |
| 2026-05-06 20:12 | 41.25273 | -8.68025 | 182 ft | 7 kts | 133° |
| 2026-05-06 20:12 | 41.25193 | -8.67996 | 189 ft | 18 kts | 168° |
| 2026-05-06 20:13 | 41.25090 | -8.67967 | 194 ft | 13 kts | 169° |
| 2026-05-06 20:13 | 41.25013 | -8.67949 | 206 ft | 10 kts | 170° |
| 2026-05-06 20:13 | 41.24946 | -8.67933 | 195 ft | 16 kts | 170° |
| 2026-05-06 20:13 | 41.24828 | -8.67875 | 209 ft | 16 kts | 150° |
| 2026-05-06 20:14 | 41.24739 | -8.67823 | 212 ft | 16 kts | 168° |
| 2026-05-06 20:14 | 41.24611 | -8.67792 | 214 ft | 17 kts | 169° |
| 2026-05-06 20:14 | 41.24515 | -8.67769 | 223 ft | 11 kts | 169° |
| 2026-05-06 20:14 | 41.24436 | -8.67749 | 223 ft | 20 kts | 169° |
| 2026-05-06 20:15 | 41.24302 | -8.67693 | 232 ft | 15 kts | 137° |
| 2026-05-06 20:15 | 41.24246 | -8.67612 | 239 ft | 9 kts | 133° |
| 2026-05-06 20:15 | 41.24153 | -8.67562 | 238 ft | 24 kts | 170° |
| 2026-05-06 20:15 | 41.24007 | -8.67528 | 238 ft | 20 kts | 169° |
| 2026-05-06 20:16 | 41.23885 | -8.67494 | 238 ft | 15 kts | 168° |
| 2026-05-06 20:16 | 41.23790 | -8.67468 | 239 ft | 13 kts | 168° |
| 2026-05-06 20:16 | 41.23700 | -8.67444 | 238 ft | 13 kts | 168° |
| 2026-05-06 20:16 | 41.23617 | -8.67422 | 238 ft | 12 kts | 169° |
| 2026-05-06 20:17 | 41.23556 | -8.67405 | 239 ft | 7 kts | 161° |
| 2026-05-06 20:17 | 41.23539 | -8.67379 | 240 ft | 1 kts | 116° |
| 2026-05-06 20:17 | 41.23528 | -8.67350 | 242 ft | 2 kts | 116° |
| 2026-05-06 20:17 | 41.23519 | -8.67323 | 243 ft | 2 kts | 115° |
| 2026-05-06 20:18 | 41.23512 | -8.67301 | 244 ft | 1 kts | 113° |
| 2026-05-06 20:18 | 41.23505 | -8.67282 | 245 ft | 2 kts | 113° |
| 2026-05-06 20:18 | 41.23504 | -8.67277 | 245 ft | 0 kts | 113° |